Time;durP1;ratioP1;P1;durP2;ratioP2;P2;SDS_P1;SDS_P2;PMS_P1;PMS_P2;Temp;Humidity;BMP_temperature;BMP_pressure;BME280_temperature;BME280_humidity;BME280_pressure;Samples;Min_cycle;Max_cycle;Signal;HPM_P1;HPM_P2
2024/03/01 00:01:14;;;;;;;12.23;8.90;;;10.70;99.90;;;;;;4938078;28;20500;-80
2024/03/01 00:03:45;;;;;;;11.63;8.77;;;10.60;99.90;;;;;;4922379;29;20475;-80
2024/03/01 00:06:14;;;;;;;12.90;8.60;;;10.60;99.90;;;;;;4938597;29;20428;-80
2024/03/01 00:08:40;;;;;;;11.27;9.10;;;10.60;99.90;;;;;;4934485;29;20443;-80
2024/03/01 00:11:08;;;;;;;12.67;8.87;;;10.60;99.90;;;;;;4936018;29;20802;-80
2024/03/01 00:13:34;;;;;;;11.60;8.70;;;10.60;99.90;;;;;;4942448;29;20479;-80
2024/03/01 00:16:03;;;;;;;13.87;8.63;;;10.90;99.90;;;;;;4939696;29;21237;-80
2024/03/01 00:18:29;;;;;;;11.50;9.40;;;10.60;99.90;;;;;;4922213;29;20523;-79
2024/03/01 00:20:58;;;;;;;10.43;9.07;;;10.60;99.90;;;;;;4939082;29;20442;-79
2024/03/01 00:23:26;;;;;;;11.47;8.87;;;10.60;99.90;;;;;;4938776;29;20423;-79
2024/03/01 00:25:55;;;;;;;13.10;8.80;;;10.60;99.90;;;;;;4925235;29;20439;-80
2024/03/01 00:28:26;;;;;;;12.53;9.53;;;10.60;99.90;;;;;;4936908;29;20543;-80
2024/03/01 00:30:54;;;;;;;10.60;8.60;;;10.60;99.90;;;;;;4943225;29;20503;-78
2024/03/01 00:33:20;;;;;;;12.57;10.40;;;10.60;99.90;;;;;;4936909;29;21267;-79
2024/03/01 00:35:49;;;;;;;15.00;9.63;;;10.60;99.90;;;;;;4943726;29;20451;-78
2024/03/01 00:38:18;;;;;;;12.67;10.23;;;10.60;99.90;;;;;;4922172;29;21060;-80
2024/03/01 00:40:46;;;;;;;13.50;9.63;;;10.60;99.90;;;;;;4936170;29;20437;-81
2024/03/01 00:43:12;;;;;;;11.07;8.93;;;10.60;99.90;;;;;;4943726;29;20455;-79
2024/03/01 00:45:41;;;;;;;15.03;9.97;;;10.80;99.90;;;;;;4929623;29;20479;-79
2024/03/01 00:48:15;;;;;;;12.40;9.27;;;10.60;99.90;;;;;;4916986;29;20510;-80
2024/03/01 00:50:41;;;;;;;13.17;10.20;;;10.60;99.90;;;;;;4932085;29;20483;-80
2024/03/01 00:53:11;;;;;;;13.17;10.87;;;10.60;99.90;;;;;;4903874;29;20522;-81
2024/03/01 00:55:37;;;;;;;11.77;9.37;;;10.60;99.90;;;;;;4940829;29;20436;-80
2024/03/01 00:58:03;;;;;;;13.77;10.53;;;10.60;99.90;;;;;;4937573;29;20441;-80
2024/03/01 01:00:29;;;;;;;11.47;8.93;;;10.80;99.90;;;;;;4938162;29;20486;-80
2024/03/01 01:03:00;;;;;;;11.87;8.97;;;11.20;99.90;;;;;;4908208;29;20997;-79
2024/03/01 01:05:28;;;;;;;12.80;10.43;;;10.60;99.90;;;;;;4935521;29;20527;-80
2024/03/01 01:07:54;;;;;;;13.10;10.10;;;10.60;99.90;;;;;;4937278;29;20475;-80
2024/03/01 01:10:20;;;;;;;14.50;10.70;;;10.60;99.90;;;;;;4905934;29;20481;-80
2024/03/01 01:12:49;;;;;;;12.40;9.40;;;10.60;99.90;;;;;;4942646;28;21158;-79
2024/03/01 01:15:17;;;;;;;13.17;10.70;;;10.80;99.90;;;;;;4907268;29;20528;-80
2024/03/01 01:17:45;;;;;;;15.00;10.83;;;10.60;99.90;;;;;;4926364;29;20449;-80
2024/03/01 01:20:14;;;;;;;17.30;10.07;;;10.60;99.90;;;;;;4937927;29;20435;-80
2024/03/01 01:22:40;;;;;;;13.00;10.40;;;10.60;99.90;;;;;;4945714;29;20464;-81
2024/03/01 01:25:08;;;;;;;14.90;10.57;;;10.60;99.90;;;;;;4916202;29;21000;-79
2024/03/01 01:27:34;;;;;;;14.70;10.17;;;10.60;99.90;;;;;;4913708;29;20439;-80
2024/03/01 01:30:00;;;;;;;14.97;11.07;;;10.50;99.90;;;;;;4943951;29;21108;-81
2024/03/01 01:32:28;;;;;;;13.00;9.63;;;10.60;99.90;;;;;;4934073;29;20452;-80
2024/03/01 01:34:59;;;;;;;17.60;10.63;;;10.60;99.90;;;;;;4942237;29;20429;-80
2024/03/01 01:37:27;;;;;;;15.00;11.07;;;10.60;99.90;;;;;;4935957;29;20428;-80
2024/03/01 01:39:53;;;;;;;15.00;11.30;;;10.50;99.90;;;;;;4925595;29;20452;-80
2024/03/01 01:42:19;;;;;;;16.90;11.23;;;10.60;99.90;;;;;;4939271;29;20458;-80
2024/03/01 01:44:47;;;;;;;13.97;10.40;;;10.50;99.90;;;;;;4917604;29;20499;-80
2024/03/01 01:47:14;;;;;;;14.17;10.17;;;10.50;99.90;;;;;;4939218;29;20456;-80
2024/03/01 01:49:42;;;;;;;13.90;11.00;;;10.50;99.90;;;;;;4938258;29;20597;-80
2024/03/01 01:52:09;;;;;;;14.63;10.57;;;10.60;99.90;;;;;;4936259;29;20435;-80
2024/03/01 01:54:37;;;;;;;13.67;11.00;;;10.50;99.90;;;;;;4918967;29;20813;-80
2024/03/01 01:57:09;;;;;;;12.53;9.47;;;10.50;99.90;;;;;;4934891;29;20896;-79
2024/03/01 01:59:36;;;;;;;16.07;11.50;;;10.50;99.90;;;;;;4922730;29;20434;-79
2024/03/01 02:02:04;;;;;;;14.93;12.20;;;10.50;99.90;;;;;;4936676;29;20424;-80
2024/03/01 02:04:31;;;;;;;16.80;11.07;;;10.50;99.90;;;;;;4927022;29;20839;-80
2024/03/01 02:06:57;;;;;;;13.53;10.97;;;10.50;99.90;;;;;;4937121;29;20444;-80
2024/03/01 02:09:23;;;;;;;15.30;11.10;;;10.50;99.90;;;;;;4935628;29;20486;-81
2024/03/01 02:11:51;;;;;;;17.67;11.03;;;10.50;99.90;;;;;;4938209;29;21328;-80
2024/03/01 02:14:19;;;;;;;15.40;10.83;;;10.50;99.90;;;;;;4920707;29;20456;-80
2024/03/01 02:16:45;;;;;;;15.13;10.63;;;10.50;99.90;;;;;;4937462;29;20764;-80
2024/03/01 02:19:17;;;;;;;12.73;9.80;;;10.50;99.90;;;;;;4936833;29;20447;-80
2024/03/01 02:22:17;;;;;;;14.07;10.77;;;10.50;99.90;;;;;;4941869;29;20430;-80
2024/03/01 02:24:45;;;;;;;14.50;11.37;;;10.50;99.90;;;;;;4914492;29;20972;-79
2024/03/01 02:27:11;;;;;;;14.37;11.20;;;10.50;99.90;;;;;;4935431;29;20460;-80
2024/03/01 02:29:39;;;;;;;14.03;11.00;;;10.50;99.90;;;;;;4931110;29;20480;-80
2024/03/01 02:32:08;;;;;;;13.00;10.83;;;10.60;99.90;;;;;;4937339;29;20471;-80
2024/03/01 02:34:41;;;;;;;13.50;10.70;;;10.60;99.90;;;;;;4940251;29;20506;-79
2024/03/01 02:37:12;;;;;;;12.20;10.10;;;10.50;99.90;;;;;;4917341;29;20432;-80
2024/03/01 02:39:40;;;;;;;12.90;10.30;;;10.50;99.90;;;;;;4939378;29;21152;-79
2024/03/01 02:42:08;;;;;;;12.63;10.20;;;10.50;99.90;;;;;;4917197;29;20456;-80
2024/03/01 02:44:35;;;;;;;13.87;10.57;;;10.50;99.90;;;;;;4935388;29;21028;-80
2024/03/01 02:47:05;;;;;;;13.63;10.57;;;10.50;99.90;;;;;;4927493;29;20863;-80
2024/03/01 02:49:36;;;;;;;16.63;11.33;;;10.50;99.90;;;;;;4932051;29;20467;-81
2024/03/01 02:52:02;;;;;;;11.97;9.90;;;10.40;99.90;;;;;;4905888;29;20441;-80
2024/03/01 02:54:35;;;;;;;12.73;10.63;;;10.50;99.90;;;;;;4939039;29;20444;-80
2024/03/01 02:57:04;;;;;;;14.70;11.20;;;10.50;99.90;;;;;;4933522;29;20463;-80
2024/03/01 02:59:30;;;;;;;14.07;10.90;;;10.50;99.90;;;;;;4924074;29;20469;-79
2024/03/01 03:01:56;;;;;;;14.87;11.30;;;10.50;99.90;;;;;;4929731;29;20525;-80
2024/03/01 03:04:30;;;;;;;14.33;11.83;;;10.50;99.90;;;;;;4935711;29;20542;-81
2024/03/01 03:06:59;;;;;;;12.57;9.97;;;10.50;99.90;;;;;;4938059;29;20228;-80
2024/03/01 03:09:28;;;;;;;15.17;11.60;;;10.50;99.90;;;;;;4935353;29;20483;-80
2024/03/01 03:11:56;;;;;;;12.23;9.70;;;10.40;99.90;;;;;;4921610;29;20491;-79
2024/03/01 03:14:26;;;;;;;14.90;11.13;;;10.50;99.90;;;;;;4928983;29;20539;-80
2024/03/01 03:16:55;;;;;;;14.90;10.13;;;10.50;99.90;;;;;;4939485;29;20432;-79
2024/03/01 03:19:23;;;;;;;14.40;10.90;;;10.50;99.90;;;;;;4937356;29;20470;-80
2024/03/01 03:22:17;;;;;;;14.90;9.70;;;10.50;99.90;;;;;;4935823;29;20440;-81
2024/03/01 03:24:46;;;;;;;17.63;10.50;;;10.50;99.90;;;;;;4911255;29;20938;-79
2024/03/01 03:27:12;;;;;;;13.70;10.27;;;10.60;99.90;;;;;;4941058;29;20515;-80
2024/03/01 03:29:38;;;;;;;19.20;10.80;;;10.40;99.90;;;;;;4920667;29;20566;-80
2024/03/01 03:32:06;;;;;;;12.30;10.10;;;10.40;99.90;;;;;;4940407;29;20432;-79
2024/03/01 03:34:33;;;;;;;14.40;10.70;;;10.40;99.90;;;;;;4924819;29;20460;-80
2024/03/01 03:36:59;;;;;;;15.63;12.20;;;10.40;99.90;;;;;;4927471;29;20507;-81
2024/03/01 03:39:24;;;;;;;14.40;10.90;;;10.40;99.90;;;;;;4937887;29;20506;-80
2024/03/01 03:41:50;;;;;;;14.60;10.73;;;10.40;99.90;;;;;;4952605;29;20428;-80
2024/03/01 03:44:19;;;;;;;15.57;11.40;;;10.40;99.90;;;;;;4947382;29;20428;-78
2024/03/01 03:46:48;;;;;;;13.90;10.10;;;10.60;99.90;;;;;;4954972;29;20218;-79
2024/03/01 03:49:14;;;;;;;14.50;10.30;;;10.40;99.90;;;;;;4935472;29;20471;-80
2024/03/01 03:51:45;;;;;;;12.93;10.00;;;10.40;99.90;;;;;;4951579;29;20512;-80
2024/03/01 03:54:13;;;;;;;18.20;11.50;;;10.60;99.90;;;;;;4913341;29;20492;-79
2024/03/01 03:56:39;;;;;;;15.33;10.13;;;10.40;99.90;;;;;;4930023;29;20424;-79
2024/03/01 03:59:08;;;;;;;13.23;10.40;;;10.40;99.90;;;;;;4928655;29;20459;-79
2024/03/01 04:01:34;;;;;;;13.30;9.60;;;10.40;99.90;;;;;;4924963;29;20424;-79
2024/03/01 04:04:00;;;;;;;12.83;10.10;;;10.40;99.90;;;;;;4937247;29;20463;-79
2024/03/01 04:06:26;;;;;;;12.60;9.87;;;10.40;99.90;;;;;;4925138;29;20452;-80
2024/03/01 04:08:51;;;;;;;12.80;9.80;;;10.70;99.90;;;;;;4937310;29;20195;-79
2024/03/01 04:11:20;;;;;;;15.70;10.13;;;10.40;99.90;;;;;;4901532;29;20338;-79
2024/03/01 04:13:50;;;;;;;14.00;10.00;;;10.40;99.90;;;;;;4937972;29;20479;-80
2024/03/01 04:16:18;;;;;;;17.10;10.70;;;10.60;99.90;;;;;;4940316;29;20475;-79
2024/03/01 04:18:46;;;;;;;12.10;10.10;;;10.40;99.90;;;;;;4921709;29;20189;-79
2024/03/01 04:21:14;;;;;;;15.70;9.93;;;10.50;99.90;;;;;;4934912;29;20491;-80
2024/03/01 04:23:43;;;;;;;13.63;9.67;;;10.50;99.90;;;;;;4936683;29;20504;-80
2024/03/01 04:26:09;;;;;;;13.70;9.47;;;10.40;99.90;;;;;;4935614;29;20474;-80
2024/03/01 04:28:41;;;;;;;12.10;9.43;;;10.40;99.90;;;;;;4933973;29;20428;-80
2024/03/01 04:31:07;;;;;;;17.77;10.30;;;10.40;99.90;;;;;;4917607;29;20512;-79
2024/03/01 04:34:04;;;;;;;10.17;9.00;;;10.40;99.90;;;;;;4934923;29;20479;-80
2024/03/01 04:36:36;;;;;;;17.47;10.43;;;10.40;99.90;;;;;;4919590;29;20428;-80
2024/03/01 04:39:05;;;;;;;12.50;9.40;;;10.40;99.90;;;;;;4936607;29;20459;-79
2024/03/01 04:41:31;;;;;;;12.90;9.70;;;10.40;99.90;;;;;;4921703;29;20874;-79
2024/03/01 04:43:57;;;;;;;13.90;9.33;;;10.40;99.90;;;;;;4923846;29;20494;-80
2024/03/01 04:46:23;;;;;;;11.43;9.00;;;10.40;99.90;;;;;;4919485;29;20507;-79
2024/03/01 04:48:49;;;;;;;13.07;9.60;;;10.50;99.90;;;;;;4935063;29;20436;-80
2024/03/01 04:51:19;;;;;;;14.00;9.77;;;10.40;99.90;;;;;;4915746;29;20236;-80
2024/03/01 04:53:47;;;;;;;10.37;8.20;;;10.40;99.90;;;;;;4924224;29;20435;-80
2024/03/01 04:56:18;;;;;;;16.53;9.63;;;10.50;99.90;;;;;;4937368;29;20532;-79
2024/03/01 04:58:47;;;;;;;13.20;9.40;;;10.40;99.90;;;;;;4941664;29;20480;-80
2024/03/01 05:01:15;;;;;;;12.50;9.20;;;10.50;99.90;;;;;;4889830;29;21052;-81
2024/03/01 05:03:44;;;;;;;10.87;8.30;;;10.40;99.90;;;;;;4916158;29;20530;-80
2024/03/01 05:06:12;;;;;;;10.80;9.00;;;10.60;99.90;;;;;;4934209;29;20510;-80
2024/03/01 05:08:40;;;;;;;9.40;7.57;;;10.40;99.90;;;;;;4924889;29;20432;-79
2024/03/01 05:11:06;;;;;;;10.40;7.67;;;10.40;99.90;;;;;;4915705;29;20781;-80
2024/03/01 05:13:32;;;;;;;12.07;8.60;;;10.40;99.90;;;;;;4909151;29;20436;-80
2024/03/01 05:15:59;;;;;;;9.80;7.93;;;10.50;99.90;;;;;;4919875;29;20432;-80
2024/03/01 05:18:25;;;;;;;10.80;8.90;;;10.40;99.90;;;;;;4909584;29;20467;-79
2024/03/01 05:20:53;;;;;;;9.83;8.10;;;10.40;99.90;;;;;;4940800;29;20429;-79
2024/03/01 05:23:22;;;;;;;9.70;7.90;;;10.40;99.90;;;;;;4918279;29;20535;-79
2024/03/01 05:25:49;;;;;;;13.43;8.50;;;10.40;99.90;;;;;;4942925;29;20457;-79
2024/03/01 05:28:15;;;;;;;11.97;8.27;;;10.40;99.90;;;;;;4938205;29;20446;-81
2024/03/01 05:30:45;;;;;;;9.70;8.00;;;10.40;99.90;;;;;;4917939;29;20468;-80
2024/03/01 05:33:13;;;;;;;12.60;9.17;;;10.40;99.90;;;;;;4940998;29;20434;-80
2024/03/01 05:35:39;;;;;;;9.63;8.30;;;10.40;99.90;;;;;;4944087;29;20433;-80
2024/03/01 05:38:05;;;;;;;10.40;8.63;;;10.50;99.90;;;;;;4943245;29;20482;-79
2024/03/01 05:40:32;;;;;;;11.87;8.40;;;10.40;99.90;;;;;;4943642;29;20440;-79
2024/03/01 05:42:59;;;;;;;10.00;8.20;;;10.40;99.90;;;;;;4910683;29;20440;-80
2024/03/01 05:45:27;;;;;;;9.77;7.63;;;10.40;99.90;;;;;;4911587;29;20460;-79
2024/03/01 05:47:53;;;;;;;9.67;8.03;;;10.60;99.90;;;;;;4911450;29;20474;-79
2024/03/01 05:50:23;;;;;;;10.90;8.40;;;10.50;99.90;;;;;;4942538;29;20462;-78
2024/03/01 05:52:50;;;;;;;11.47;8.17;;;10.70;99.90;;;;;;4924073;29;20458;-80
2024/03/01 05:55:18;;;;;;;10.83;7.90;;;10.40;99.90;;;;;;4923814;29;20908;-81
2024/03/01 05:57:47;;;;;;;11.37;8.73;;;10.60;99.90;;;;;;4914997;29;20589;-80
2024/03/01 06:00:21;;;;;;;8.80;7.17;;;10.50;99.90;;;;;;4894967;29;20488;-80
2024/03/01 06:02:50;;;;;;;16.10;8.03;;;10.40;99.90;;;;;;4907263;29;20539;-81
2024/03/01 06:05:19;;;;;;;9.60;7.90;;;10.40;99.90;;;;;;4895167;29;20456;-81
2024/03/01 06:07:45;;;;;;;9.77;7.37;;;10.40;99.90;;;;;;4910967;29;20432;-82
2024/03/01 06:10:13;;;;;;;11.17;8.20;;;10.40;99.90;;;;;;4922974;29;20587;-80
2024/03/01 06:12:41;;;;;;;11.70;8.07;;;10.50;99.90;;;;;;4917062;29;20509;-80
2024/03/01 06:15:08;;;;;;;14.47;9.60;;;10.40;99.90;;;;;;4940369;29;20489;-80
2024/03/01 06:17:34;;;;;;;10.17;7.87;;;10.40;99.90;;;;;;4907566;29;21095;-80
2024/03/01 06:20:03;;;;;;;9.30;8.17;;;10.50;99.90;;;;;;4925128;29;20569;-80
2024/03/01 06:22:30;;;;;;;10.73;8.50;;;10.40;99.90;;;;;;4898881;29;20432;-81
2024/03/01 06:24:56;;;;;;;10.80;8.30;;;10.40;99.90;;;;;;4908741;29;20447;-79
2024/03/01 06:27:26;;;;;;;10.77;8.10;;;10.40;99.90;;;;;;4915399;29;20999;-79
2024/03/01 06:29:52;;;;;;;8.50;7.60;;;10.40;99.90;;;;;;4906763;29;20971;-79
2024/03/01 06:32:19;;;;;;;11.33;6.90;;;10.40;99.90;;;;;;4923319;29;20515;-80
2024/03/01 06:34:50;;;;;;;10.10;8.37;;;10.40;99.90;;;;;;4912462;29;20429;-80
2024/03/01 06:37:21;;;;;;;8.70;7.10;;;10.40;99.90;;;;;;4945504;29;20440;-79
2024/03/01 06:39:47;;;;;;;6.73;5.60;;;10.50;99.90;;;;;;4896354;29;20506;-81
2024/03/01 06:42:13;;;;;;;8.17;7.30;;;10.50;99.90;;;;;;4904054;29;21099;-79
2024/03/01 06:44:41;;;;;;;19.53;7.17;;;10.40;99.90;;;;;;4909837;29;20625;-79
2024/03/01 06:47:08;;;;;;;9.17;6.60;;;10.40;99.90;;;;;;4901684;29;20443;-78
2024/03/01 06:49:34;;;;;;;7.07;4.97;;;10.40;99.90;;;;;;4932141;29;20483;-82
2024/03/01 06:52:00;;;;;;;6.70;4.93;;;10.40;99.90;;;;;;4919444;29;20456;-80
2024/03/01 06:54:31;;;;;;;6.50;4.60;;;10.60;99.90;;;;;;4932532;29;20590;-79
2024/03/01 06:57:02;;;;;;;5.10;4.60;;;10.50;99.90;;;;;;4906357;29;21163;-81
2024/03/01 06:59:28;;;;;;;5.60;5.00;;;10.40;99.90;;;;;;4908182;29;20443;-83
2024/03/01 07:01:56;;;;;;;5.10;4.60;;;10.40;99.90;;;;;;4922137;29;20534;-81
2024/03/01 07:04:22;;;;;;;5.97;4.90;;;10.50;99.90;;;;;;4950512;29;20453;-80
2024/03/01 07:06:48;;;;;;;4.50;4.10;;;10.50;99.90;;;;;;4915039;29;20468;-79
2024/03/01 07:09:16;;;;;;;8.40;4.33;;;10.80;99.90;;;;;;4921296;29;20858;-78
2024/03/01 07:11:42;;;;;;;5.40;4.47;;;10.40;99.90;;;;;;4910238;29;20476;-79
2024/03/01 07:14:15;;;;;;;5.27;4.60;;;10.40;99.90;;;;;;4921121;29;20736;-81
2024/03/01 07:16:41;;;;;;;4.70;4.30;;;10.40;99.90;;;;;;4918315;29;20495;-79
2024/03/01 07:19:09;;;;;;;4.23;3.83;;;10.40;99.90;;;;;;4911559;29;20880;-79
2024/03/01 07:21:40;;;;;;;4.20;3.80;;;10.50;99.90;;;;;;4905944;29;20536;-81
2024/03/01 07:24:06;;;;;;;5.20;4.70;;;10.40;99.90;;;;;;4935985;29;20913;-80
2024/03/01 07:26:32;;;;;;;6.10;4.57;;;10.40;99.90;;;;;;4917280;29;20432;-80
2024/03/01 07:28:59;;;;;;;4.70;4.20;;;10.40;99.90;;;;;;4904381;29;20441;-81
2024/03/01 07:31:25;;;;;;;4.77;4.13;;;10.40;99.90;;;;;;4915111;29;20453;-80
2024/03/01 07:33:52;;;;;;;4.97;4.40;;;10.50;99.90;;;;;;4922684;29;20421;-81
2024/03/01 07:36:18;;;;;;;4.60;4.20;;;10.90;99.90;;;;;;4919011;29;20526;-79
2024/03/01 07:38:45;;;;;;;4.33;3.90;;;10.50;99.90;;;;;;4913134;29;20459;-79
2024/03/01 07:41:11;;;;;;;5.33;4.33;;;10.40;99.90;;;;;;4921917;29;20442;-79
2024/03/01 07:43:46;;;;;;;5.13;4.63;;;10.40;99.90;;;;;;4905969;29;20992;-79
2024/03/01 07:46:12;;;;;;;5.07;4.30;;;10.40;99.90;;;;;;4885776;29;20444;-79
2024/03/01 07:48:47;;;;;;;5.33;4.33;;;10.40;99.90;;;;;;4919875;29;20457;-79
2024/03/01 07:51:13;;;;;;;5.00;4.50;;;10.40;99.90;;;;;;4909098;29;20498;-79
2024/03/01 07:53:44;;;;;;;4.50;4.10;;;10.40;99.90;;;;;;4904441;29;20569;-80
2024/03/01 07:56:10;;;;;;;5.03;4.53;;;10.40;99.90;;;;;;4903233;29;20450;-79
2024/03/01 07:58:36;;;;;;;4.33;3.93;;;10.50;99.90;;;;;;4933074;29;20693;-79
2024/03/01 08:01:05;;;;;;;5.50;4.40;;;10.40;99.90;;;;;;4901031;29;20883;-82
2024/03/01 08:03:36;;;;;;;4.10;3.80;;;10.40;99.90;;;;;;4902223;29;20428;-80
2024/03/01 08:06:02;;;;;;;4.60;4.13;;;10.40;99.90;;;;;;4924363;29;20823;-81
2024/03/01 08:08:41;;;;;;;4.27;3.87;;;10.40;99.90;;;;;;4888066;29;20445;-80
2024/03/01 08:11:16;;;;;;;4.60;3.83;;;10.40;99.90;;;;;;4921271;29;20506;-80
2024/03/01 08:13:49;;;;;;;4.37;3.77;;;10.40;99.90;;;;;;4908209;29;20517;-80
2024/03/01 08:16:20;;;;;;;4.53;4.07;;;10.40;99.90;;;;;;4932896;29;20812;-79
2024/03/01 08:18:49;;;;;;;4.10;3.73;;;10.40;99.90;;;;;;4922520;29;20513;-79
2024/03/01 08:21:16;;;;;;;4.87;4.20;;;10.80;99.90;;;;;;4916940;29;20440;-82
2024/03/01 08:23:46;;;;;;;3.97;3.67;;;10.40;99.90;;;;;;4916480;29;20541;-80
2024/03/01 08:26:30;;;;;;;3.80;3.50;;;10.40;99.90;;;;;;4923563;29;20512;-80
2024/03/01 08:29:00;;;;;;;4.17;3.80;;;10.40;99.90;;;;;;4917117;29;20465;-81
2024/03/01 08:31:52;;;;;;;4.37;3.97;;;10.30;99.90;;;;;;4910054;29;20443;-82
2024/03/01 08:34:25;;;;;;;5.30;4.77;;;10.40;99.90;;;;;;4904045;29;20951;-81
2024/03/01 08:36:57;;;;;;;4.23;3.80;;;10.40;99.90;;;;;;4905157;29;20528;-82
2024/03/01 08:39:29;;;;;;;4.33;3.93;;;10.40;99.90;;;;;;4924733;29;20579;-83
2024/03/01 08:42:43;;;;;;;4.13;3.73;;;10.40;99.90;;;;;;4896955;29;20465;-80
2024/03/01 08:45:38;;;;;;;3.93;3.47;;;10.40;99.90;;;;;;4909544;29;20829;-83
2024/03/01 08:48:21;;;;;;;4.20;3.60;;;10.40;99.90;;;;;;4926211;29;20464;-81
2024/03/01 08:50:51;;;;;;;4.30;3.90;;;10.30;99.90;;;;;;4922759;29;20491;-82
2024/03/01 08:53:48;;;;;;;4.07;3.67;;;10.60;99.90;;;;;;4918730;29;20963;-80
2024/03/01 08:56:35;;;;;;;4.13;3.83;;;10.30;99.90;;;;;;4924443;29;20431;-83
2024/03/01 08:59:27;;;;;;;5.60;4.57;;;10.40;99.90;;;;;;4916496;29;20451;-83
2024/03/01 09:01:53;;;;;;;3.60;3.30;;;10.30;99.90;;;;;;4902923;29;20429;-82
2024/03/01 09:04:31;;;;;;;3.57;3.23;;;10.40;99.90;;;;;;4906573;29;20476;-82
2024/03/01 09:07:09;;;;;;;4.30;3.90;;;10.30;99.90;;;;;;4925207;29;20490;-82
2024/03/01 09:09:37;;;;;;;4.97;3.43;;;10.30;99.90;;;;;;4927694;29;20614;-84
2024/03/01 09:12:07;;;;;;;4.07;3.77;;;10.40;99.90;;;;;;4909536;29;20439;-84
2024/03/01 09:14:33;;;;;;;4.50;4.10;;;10.30;99.90;;;;;;4929668;29;20435;-82
2024/03/01 09:17:04;;;;;;;3.73;3.43;;;10.30;99.90;;;;;;4924286;29;20454;-83
2024/03/01 09:19:36;;;;;;;4.37;3.97;;;10.30;99.90;;;;;;4931663;29;20504;-83
2024/03/01 09:22:05;;;;;;;4.23;3.83;;;10.30;99.90;;;;;;4893460;29;20516;-82
2024/03/01 09:24:37;;;;;;;4.27;3.87;;;10.40;99.90;;;;;;4921864;29;20468;-83
2024/03/01 09:27:33;;;;;;;4.27;3.87;;;10.40;99.90;;;;;;4900884;29;20497;-83
2024/03/01 09:30:09;;;;;;;4.10;3.70;;;10.40;99.90;;;;;;4907220;29;20491;-82
2024/03/01 09:32:36;;;;;;;3.57;3.27;;;10.30;99.90;;;;;;4934163;29;20436;-83
2024/03/01 09:35:03;;;;;;;4.17;3.47;;;10.30;99.90;;;;;;4909603;29;20526;-82
2024/03/01 09:37:29;;;;;;;3.90;3.30;;;10.30;99.90;;;;;;4923590;29;20516;-83
2024/03/01 09:39:59;;;;;;;6.60;3.90;;;10.50;99.90;;;;;;4934306;29;20432;-82
2024/03/01 09:42:44;;;;;;;4.17;3.87;;;10.40;99.90;;;;;;4917480;29;20467;-84
2024/03/01 09:45:46;;;;;;;3.90;3.57;;;10.30;99.90;;;;;;4906574;29;20435;-83
2024/03/01 09:48:44;;;;;;;3.40;3.10;;;10.40;99.90;;;;;;4921421;29;20511;-83
2024/03/01 09:51:29;;;;;;;4.10;3.70;;;10.40;99.90;;;;;;4933138;29;20537;-82
2024/03/01 09:54:07;;;;;;;4.50;3.80;;;10.40;99.90;;;;;;4896479;29;20460;-81
2024/03/01 09:56:52;;;;;;;4.00;3.60;;;10.30;99.90;;;;;;4938030;29;20798;-84
2024/03/01 09:59:24;;;;;;;3.90;3.30;;;10.40;99.90;;;;;;4892404;29;20436;-81
2024/03/01 10:02:01;;;;;;;4.57;3.80;;;10.40;99.90;;;;;;4904919;29;20475;-81
2024/03/01 10:04:40;;;;;;;3.93;3.53;;;10.40;99.90;;;;;;4922850;23;20503;-29
2024/03/01 10:07:38;;;;;;;3.23;2.97;;;10.40;99.90;;;;;;4900408;29;20416;-31
2024/03/01 10:10:53;;;;;;;3.80;3.50;;;10.40;99.90;;;;;;4917380;29;20949;-30
2024/03/01 10:13:39;;;;;;;3.63;3.20;;;10.40;99.90;;;;;;4902835;29;20555;-31
2024/03/01 10:16:13;;;;;;;4.50;4.10;;;10.50;99.90;;;;;;4905073;29;20877;-29
2024/03/01 10:18:59;;;;;;;5.03;3.60;;;10.40;99.90;;;;;;4904873;29;20858;-30
2024/03/01 10:21:57;;;;;;;4.57;3.30;;;10.40;99.90;;;;;;4921324;29;21253;-28
2024/03/01 10:25:14;;;;;;;4.43;3.77;;;10.50;99.90;;;;;;4922507;29;20451;-27
2024/03/01 10:27:48;;;;;;;3.83;3.53;;;10.50;99.90;;;;;;4919669;29;20448;-30
2024/03/01 10:30:29;;;;;;;4.50;3.77;;;10.60;99.90;;;;;;4934953;29;20496;-32
2024/03/01 10:33:15;;;;;;;4.60;3.43;;;10.60;99.90;;;;;;4919709;29;20503;-28
2024/03/01 10:36:00;;;;;;;3.60;3.30;;;10.60;99.90;;;;;;4922280;29;20860;-28
2024/03/01 10:38:40;;;;;;;4.80;3.90;;;10.60;99.90;;;;;;4923406;29;20966;-31
2024/03/01 10:41:31;;;;;;;3.27;2.97;;;10.60;99.90;;;;;;4921263;29;20478;-26
2024/03/01 10:44:04;;;;;;;4.30;3.83;;;10.60;99.90;;;;;;4922669;29;20455;-30
2024/03/01 10:46:33;;;;;;;3.30;3.00;;;10.70;99.90;;;;;;4920390;29;20622;-29
2024/03/01 10:49:18;;;;;;;4.10;3.23;;;10.70;99.20;;;;;;4922781;29;20429;-25
2024/03/01 10:51:56;;;;;;;3.70;3.37;;;10.70;99.20;;;;;;4921980;29;20468;-31
2024/03/01 10:54:28;;;;;;;3.87;3.50;;;10.70;99.30;;;;;;4926421;29;20424;-27
2024/03/01 10:56:59;;;;;;;3.47;3.07;;;10.70;99.30;;;;;;4936293;29;21206;-25
2024/03/01 10:59:43;;;;;;;4.00;3.60;;;10.70;99.30;;;;;;4922634;29;20428;-30
2024/03/01 11:02:20;;;;;;;4.00;3.70;;;10.70;99.20;;;;;;4922340;29;20586;-29
2024/03/01 11:05:17;;;;;;;3.10;2.83;;;10.70;99.20;;;;;;4920445;29;21050;-32
2024/03/01 11:08:11;;;;;;;3.97;3.30;;;10.70;99.20;;;;;;4926325;29;20420;-28
2024/03/01 11:11:01;;;;;;;3.47;3.10;;;10.80;99.30;;;;;;4922208;29;20482;-27
2024/03/01 11:13:32;;;;;;;3.17;2.87;;;10.70;99.10;;;;;;4922653;29;20424;-26
2024/03/01 11:16:04;;;;;;;3.40;3.10;;;10.80;99.20;;;;;;4923401;29;20510;-29
2024/03/01 11:18:37;;;;;;;3.33;3.03;;;10.80;99.20;;;;;;4922049;29;20522;-28
2024/03/01 11:21:12;;;;;;;3.60;3.30;;;10.80;99.00;;;;;;4923161;29;20803;-27
2024/03/01 11:24:02;;;;;;;3.30;3.10;;;10.80;98.80;;;;;;4939223;29;20846;-34
2024/03/01 11:26:42;;;;;;;3.90;3.00;;;10.80;98.90;;;;;;4940318;29;20904;-30
2024/03/01 11:29:31;;;;;;;2.80;2.60;;;10.80;98.80;;;;;;4924321;29;20955;-30
2024/03/01 11:32:22;;;;;;;2.70;2.50;;;10.80;98.70;;;;;;4922484;29;20460;-36
2024/03/01 11:35:09;;;;;;;2.57;2.40;;;10.90;98.60;;;;;;4912231;29;20978;-26
2024/03/01 11:38:08;;;;;;;2.63;2.43;;;10.90;98.50;;;;;;4925820;29;21076;-30
2024/03/01 11:40:34;;;;;;;2.40;2.20;;;10.90;98.60;;;;;;4923419;29;20515;-30
2024/03/01 11:43:29;;;;;;;2.70;2.20;;;10.90;98.40;;;;;;4923472;29;20442;-30
2024/03/01 11:46:14;;;;;;;3.23;2.20;;;10.90;98.60;;;;;;4937003;28;20460;-28
2024/03/01 11:49:13;;;;;;;2.77;2.57;;;10.90;98.40;;;;;;4922265;29;20452;-26
2024/03/01 11:52:09;;;;;;;2.37;2.17;;;10.90;98.60;;;;;;4905857;29;20992;-30
2024/03/01 11:54:56;;;;;;;2.53;2.33;;;10.90;98.70;;;;;;4922625;29;20448;-31
2024/03/01 11:57:58;;;;;;;2.90;2.60;;;11.00;98.80;;;;;;4922215;29;20423;-27
2024/03/01 12:01:10;;;;;;;2.70;2.50;;;11.00;98.70;;;;;;4925224;29;20462;-31
2024/03/01 12:04:08;;;;;;;2.37;2.17;;;11.00;98.70;;;;;;4921076;29;20463;-30
2024/03/01 12:06:51;;;;;;;2.10;2.00;;;11.00;98.60;;;;;;4929352;29;20429;-32
2024/03/01 12:09:34;;;;;;;2.67;2.33;;;11.00;98.70;;;;;;4909975;29;20440;-32
2024/03/01 12:12:29;;;;;;;2.47;2.27;;;11.00;98.80;;;;;;4926683;29;20420;-30
2024/03/01 12:14:59;;;;;;;2.40;2.30;;;11.00;98.80;;;;;;4926678;29;21019;-32
2024/03/01 12:17:32;;;;;;;4.50;2.50;;;11.10;98.80;;;;;;4925909;29;20991;-27
2024/03/01 12:20:09;;;;;;;2.20;2.10;;;11.10;98.80;;;;;;4923866;29;20428;-29
2024/03/01 12:23:14;;;;;;;2.27;2.10;;;11.10;98.80;;;;;;4922526;29;20432;-30
2024/03/01 12:25:40;;;;;;;2.10;2.00;;;11.10;98.80;;;;;;4924401;29;20467;-29
2024/03/01 12:28:25;;;;;;;2.63;2.17;;;11.10;98.80;;;;;;4924673;29;20535;-30
2024/03/01 12:30:57;;;;;;;1.90;1.80;;;11.20;98.90;;;;;;4924153;29;20504;-28
2024/03/01 12:33:49;;;;;;;2.10;1.80;;;11.20;98.80;;;;;;4924509;29;20456;-28
2024/03/01 12:36:34;;;;;;;2.10;2.00;;;11.20;98.80;;;;;;4924406;29;20428;-31
2024/03/01 12:39:10;;;;;;;2.20;2.10;;;11.20;98.60;;;;;;4938190;29;20436;-27
2024/03/01 12:41:47;;;;;;;1.90;1.80;;;11.20;98.60;;;;;;4924705;29;20448;-27
2024/03/01 12:44:34;;;;;;;2.03;1.93;;;11.20;98.50;;;;;;4924970;29;20436;-32
2024/03/01 12:47:03;;;;;;;2.03;1.93;;;11.30;98.50;;;;;;4892182;29;20458;-28
2024/03/01 12:49:48;;;;;;;1.77;1.67;;;11.30;98.50;;;;;;4923864;29;21470;-35
2024/03/01 12:52:31;;;;;;;3.03;1.90;;;11.30;98.40;;;;;;4922136;29;20510;-27
2024/03/01 12:55:25;;;;;;;2.10;1.90;;;11.30;98.20;;;;;;4924633;29;20476;-30
2024/03/01 12:57:54;;;;;;;2.17;2.03;;;11.30;98.20;;;;;;4923441;29;20430;-29
2024/03/01 13:00:25;;;;;;;1.90;1.80;;;11.30;98.00;;;;;;4922042;29;20516;-30
2024/03/01 13:03:08;;;;;;;9.23;5.97;;;11.30;97.80;;;;;;4937726;29;20427;-31
2024/03/01 13:05:36;;;;;;;4.40;3.30;;;11.30;97.10;;;;;;4937757;28;21326;-31
2024/03/01 13:08:11;;;;;;;7.80;3.97;;;11.40;96.60;;;;;;4942849;23;20495;-25
2024/03/01 13:10:44;;;;;;;42.07;28.40;;;11.40;96.20;;;;;;4906574;29;20487;-25